Список аэропортов
Фактическая погода:

25 июня, 11:30
Температура: +30°C (+30.0*)
Ветер: южный 4 м/с
Давление: *758 мм
Без существ. явл.
Время (МСК)Темп. СВетерВлажностьДавлениеОблачностьОсадки
09:00+28СВ, 1 м/с50%1009 гПаясно
10:00+29В, 2 м/с50%1010 гПаясно
11:00+30ЮВ, 3 м/с53%1010 гПаясно
12:00+29ЮВ, 4 м/с56%1010 гПаясно
13:00+29Ю, 4 м/с56%1009 гПаясно
14:00+29Ю, 4 м/с53%1009 гПаясно
15:00+30Ю, 4 м/с49%1008 гПаясно
16:00+30Ю, 5 м/с46%1008 гПаясно
17:00+31ЮЗ, 5 м/с42%1008 гПаясно
18:00+31ЮЗ, 4 м/с40%1007 гПаясно
19:00+30ЮЗ, 3 м/с42%1007 гПаясно
20:00+29ЮЗ, 3 м/с48%1007 гПаясно
21:00+28З, 3 м/с51%1007 гПаясно
22:00+28СЗ, 3 м/с43%1007 гПаясно
23:00+27СЗ, 2 м/с42%1007 гПаясно
26 июня
00:00+26СЗ, 2 м/с43%1007 гПаясно
01:00+26СЗ, 2 м/с44%1007 гПаясно
02:00+25ЮЗ, 1 м/с53%1007 гПаясно
03:00+24Ю, 1 м/с70%1006 гПаясно
04:00+22Ю, 1 м/с80%1007 гПамалооблачно
05:00+22З, 1 м/с77%1007 гПаясно
06:00+22С, 1 м/с70%1007 гПаясно
07:00+24В, 1 м/с71%1007 гПаясно
08:00+25В, 2 м/с68%1008 гПаясно
09:00+28В, 1 м/с59%1008 гПамалооблачно
10:00+29ЮВ, 2 м/с56%1008 гПамалооблачно
11:00+29ЮВ, 4 м/с62%1008 гПамалооблачно
12:00+29Ю, 5 м/с62%1008 гПамалооблачно
13:00+29Ю, 5 м/с62%1008 гПамалооблачно
14:00+29Ю, 5 м/с60%1008 гПамалооблачно
15:00+30Ю, 5 м/с57%1007 гПамалооблачно
16:00+30Ю, 5 м/с52%1007 гПаясно
17:00+30Ю, 4 м/с52%1007 гПаясно
18:00+29ЮЗ, 4 м/с58%1006 гПаясно
19:00+29ЮЗ, 3 м/с62%1006 гПаясно
20:00+28ЮЗ, 1 м/с66%1007 гПаясно
21:00+27С, 2 м/с67%1007 гПаясно
22:00+26СВ, 2 м/с72%1007 гПаясно
23:00+25СВ, 2 м/с82%1007 гПаясно
27 июня
00:00+24СВ, 2 м/с88%1007 гПаясно
01:00+23СВ, 2 м/с91%1007 гПамалооблачно
02:00+22СВ, 2 м/с92%1007 гПамалооблачно
03:00+22СВ, 1 м/с92%1007 гПамалооблачно
04:00+21С, 1 м/с92%1007 гПамалооблачно
05:00+21Штиль 91%1008 гПамалооблачно
06:00+21Штиль 95%1008 гПас прояснениями
07:00+22Штиль 91%1008 гПас прояснениями
08:00+24З, 1 м/с86%1009 гПамалооблачно
09:00+26СЗ, 1 м/с65%1009 гПаясно